createdAt,value
2022-11-29T00:01:38.459Z,98582.06
2022-11-29T00:04:06.769Z,98612.50
2022-11-29T00:06:35.520Z,98618.72
2022-11-29T00:09:07.660Z,98610.19
2022-11-29T00:11:55.423Z,98609.47
2022-11-29T00:14:24.534Z,98559.06
2022-11-29T00:16:54.386Z,98587.22
2022-11-29T00:19:22.607Z,98609.75
2022-11-29T00:21:50.545Z,98610.94
2022-11-29T00:24:18.835Z,98617.13
2022-11-29T00:26:46.537Z,98609.59
2022-11-29T00:29:14.843Z,98610.56
2022-11-29T00:31:43.376Z,98610.63
2022-11-29T00:34:12.723Z,98612.94
2022-11-29T00:36:41.092Z,98620.75
2022-11-29T00:39:11.812Z,98614.75
2022-11-29T00:41:39.887Z,98618.63
2022-11-29T00:44:07.619Z,98603.41
2022-11-29T00:46:35.370Z,98607.44
2022-11-29T00:49:03.187Z,98608.41
2022-11-29T00:51:30.855Z,98612.47
2022-11-29T00:53:58.537Z,98615.38
2022-11-29T00:56:26.254Z,98608.03
2022-11-29T00:58:54.031Z,98610.84
2022-11-29T01:01:21.752Z,98617.00
2022-11-29T01:03:49.784Z,98608.53
2022-11-29T01:06:19.239Z,98623.88
2022-11-29T01:08:48.112Z,98607.00
2022-11-29T01:11:24.245Z,98618.06
2022-11-29T01:13:55.022Z,98619.19
2022-11-29T01:16:23.647Z,98622.59
2022-11-29T01:18:51.437Z,98627.13
2022-11-29T01:21:22.280Z,98628.00
2022-11-29T01:23:51.439Z,98631.00
2022-11-29T01:26:24.905Z,98631.34
2022-11-29T01:28:54.721Z,98628.06
2022-11-29T01:31:29.185Z,98622.03
2022-11-29T01:33:59.145Z,98625.19
2022-11-29T01:36:27.783Z,98625.19
2022-11-29T01:38:55.610Z,98618.41
2022-11-29T01:41:26.102Z,98617.84
2022-11-29T01:44:29.263Z,98618.38
2022-11-29T01:46:58.337Z,98611.16
2022-11-29T01:49:39.455Z,98612.59
2022-11-29T01:52:12.226Z,98616.72
2022-11-29T01:54:44.839Z,98604.09
2022-11-29T01:57:14.039Z,98621.66
2022-11-29T01:59:49.493Z,98603.53
2022-11-29T02:02:21.843Z,98613.94
2022-11-29T02:04:50.555Z,98619.56
2022-11-29T02:07:18.376Z,98624.34
2022-11-29T02:09:46.125Z,98620.28
2022-11-29T02:12:16.700Z,98620.03
2022-11-29T02:14:50.361Z,98615.59
2022-11-29T02:17:54.930Z,98618.88
2022-11-29T02:20:56.281Z,98623.31
2022-11-29T02:24:08.726Z,98624.16
2022-11-29T02:27:05.412Z,98624.47
2022-11-29T02:30:08.224Z,98632.00
2022-11-29T02:33:09.754Z,98626.16
2022-11-29T02:36:06.827Z,98634.03
2022-11-29T02:39:08.607Z,98624.22
2022-11-29T02:41:53.377Z,98620.84
2022-11-29T02:44:38.666Z,98623.88
2022-11-29T02:47:18.862Z,98602.72
2022-11-29T02:50:13.981Z,98618.31
2022-11-29T02:52:51.489Z,98604.44
2022-11-29T02:55:42.198Z,98617.34
2022-11-29T02:58:27.523Z,98627.50
2022-11-29T03:01:22.227Z,98627.09
2022-11-29T03:04:29.634Z,98627.19
2022-11-29T03:07:05.106Z,98630.38
2022-11-29T03:10:04.268Z,98630.34
2022-11-29T03:12:41.461Z,98625.00
2022-11-29T03:15:17.789Z,98629.13
2022-11-29T03:18:03.824Z,98633.53
2022-11-29T03:20:31.455Z,98632.72
2022-11-29T03:23:15.902Z,98637.06
2022-11-29T03:25:56.352Z,98635.88
2022-11-29T03:28:29.042Z,98632.25
2022-11-29T03:31:19.835Z,98633.16
2022-11-29T03:34:05.971Z,98630.94
2022-11-29T03:36:49.130Z,98625.41
2022-11-29T03:39:22.185Z,98630.09
2022-11-29T03:41:56.508Z,98600.69
2022-11-29T03:44:28.997Z,98622.75
2022-11-29T03:47:13.700Z,98627.91
2022-11-29T03:49:57.486Z,98625.94
2022-11-29T03:52:28.577Z,98615.84
2022-11-29T03:55:33.103Z,98629.00
2022-11-29T03:58:12.287Z,98626.09
2022-11-29T04:01:29.490Z,98623.22
2022-11-29T04:04:19.277Z,98629.03
2022-11-29T04:07:01.844Z,98622.78
2022-11-29T04:09:50.341Z,98606.97
2022-11-29T04:12:39.553Z,98626.56
2022-11-29T04:15:41.035Z,98626.00
2022-11-29T04:18:41.160Z,98634.81
2022-11-29T04:21:27.679Z,98636.53
2022-11-29T04:24:10.559Z,98631.44
2022-11-29T04:27:07.661Z,98623.19
2022-11-29T04:29:53.766Z,98630.31
2022-11-29T04:32:40.297Z,98629.41
2022-11-29T04:35:39.977Z,98630.31
2022-11-29T04:38:26.477Z,98624.50
2022-11-29T04:41:12.246Z,98624.16
2022-11-29T04:44:07.128Z,98626.38
2022-11-29T04:46:49.763Z,98627.50
2022-11-29T04:49:29.507Z,98627.06
2022-11-29T04:52:19.801Z,98630.63
2022-11-29T04:55:06.092Z,98625.16
2022-11-29T04:57:54.389Z,98628.72
2022-11-29T05:00:24.705Z,98632.78
2022-11-29T05:02:57.349Z,98638.88
2022-11-29T05:05:50.111Z,98642.47
2022-11-29T05:08:36.418Z,98633.06
2022-11-29T05:11:13.151Z,98640.47
2022-11-29T05:13:58.950Z,98639.22
2022-11-29T05:16:41.461Z,98638.09
2022-11-29T05:19:48.988Z,98646.34
2022-11-29T05:22:49.265Z,98646.78
2022-11-29T05:25:41.253Z,98640.50
2022-11-29T05:28:32.429Z,98637.22
2022-11-29T05:31:21.932Z,98635.97
2022-11-29T05:34:04.730Z,98635.09
2022-11-29T05:36:57.138Z,98638.63
2022-11-29T05:39:50.599Z,98652.34
2022-11-29T05:42:29.687Z,98648.75
2022-11-29T05:45:10.949Z,98654.28
2022-11-29T05:47:52.117Z,98634.59
2022-11-29T05:50:27.809Z,98643.50
2022-11-29T05:53:37.168Z,98641.34
2022-11-29T05:56:17.935Z,98639.84
2022-11-29T05:59:23.311Z,98642.34
2022-11-29T06:02:09.460Z,98648.31
2022-11-29T06:04:58.329Z,98642.66
2022-11-29T06:07:51.712Z,98634.31
2022-11-29T06:10:22.206Z,98635.78
2022-11-29T06:13:08.254Z,98643.84
2022-11-29T06:15:56.649Z,98632.94
2022-11-29T06:18:47.573Z,98646.41
2022-11-29T06:21:40.203Z,98640.72
2022-11-29T06:24:25.907Z,98644.41
2022-11-29T06:27:12.556Z,98650.56
2022-11-29T06:29:59.059Z,98654.97
2022-11-29T06:32:51.680Z,98656.47
2022-11-29T06:35:45.793Z,98661.41
2022-11-29T06:38:23.593Z,98657.00
2022-11-29T06:40:56.054Z,98667.88
2022-11-29T06:43:28.202Z,98650.66
2022-11-29T06:46:07.253Z,98651.03
2022-11-29T06:48:43.322Z,98668.19
2022-11-29T06:51:30.424Z,98668.00
2022-11-29T06:54:25.241Z,98666.97
2022-11-29T06:57:21.598Z,98673.06
2022-11-29T07:00:17.271Z,98662.13
2022-11-29T07:03:15.953Z,98664.00
2022-11-29T07:05:44.042Z,98657.47
2022-11-29T07:08:21.267Z,98671.72
2022-11-29T07:10:53.109Z,98669.72
2022-11-29T07:13:21.283Z,98670.31
2022-11-29T07:16:08.615Z,98670.59
2022-11-29T07:18:54.868Z,98677.41
2022-11-29T07:21:26.991Z,98680.72
2022-11-29T07:23:57.370Z,98682.88
2022-11-29T07:26:30.179Z,98682.41
2022-11-29T07:29:06.916Z,98676.44
2022-11-29T07:31:57.051Z,98676.66
2022-11-29T07:34:32.798Z,98681.16
2022-11-29T07:37:31.889Z,98681.31
2022-11-29T07:40:24.883Z,98670.97
2022-11-29T07:43:08.192Z,98675.97
2022-11-29T07:45:36.851Z,98681.72
2022-11-29T07:48:05.365Z,98670.25
2022-11-29T07:50:33.139Z,98677.59
2022-11-29T07:53:01.227Z,98678.66
2022-11-29T07:55:29.711Z,98683.78
2022-11-29T07:57:57.395Z,98686.31
2022-11-29T08:00:25.283Z,98688.97
2022-11-29T08:02:53.024Z,98666.44
2022-11-29T08:05:20.748Z,98687.00
2022-11-29T08:07:48.663Z,98683.69
2022-11-29T08:10:18.163Z,98687.50
2022-11-29T08:12:48.823Z,98683.75
2022-11-29T08:15:17.587Z,98684.59
2022-11-29T08:17:45.272Z,98681.88
2022-11-29T08:20:15.189Z,98688.72
2022-11-29T08:22:43.098Z,98684.38
2022-11-29T08:25:12.048Z,98677.09
2022-11-29T08:27:39.821Z,98677.41
2022-11-29T08:30:08.827Z,98674.47
2022-11-29T08:32:36.871Z,98670.91
2022-11-29T08:35:04.739Z,98675.63
2022-11-29T08:37:32.418Z,98668.56
2022-11-29T08:40:00.147Z,98680.00
2022-11-29T08:42:27.887Z,98678.63
2022-11-29T08:44:55.569Z,98666.81
2022-11-29T08:47:38.130Z,98662.81
2022-11-29T08:50:14.486Z,98669.44
2022-11-29T08:53:05.630Z,98665.28
2022-11-29T08:55:39.967Z,98663.69
2022-11-29T08:58:09.668Z,98665.63
2022-11-29T09:00:37.721Z,98677.09
2022-11-29T09:03:24.761Z,98683.69
2022-11-29T09:05:53.265Z,98663.91
2022-11-29T09:08:21.644Z,98680.84
2022-11-29T09:10:49.713Z,98680.84
2022-11-29T09:13:18.213Z,98671.34
2022-11-29T09:15:46.115Z,98677.16
2022-11-29T09:18:13.838Z,98672.25
2022-11-29T09:20:44.968Z,98685.97
2022-11-29T09:23:13.664Z,98678.00
2022-11-29T09:25:41.334Z,98680.75
2022-11-29T09:28:09.023Z,98684.03
2022-11-29T09:30:38.123Z,98678.59
2022-11-29T09:33:05.966Z,98680.47
2022-11-29T09:35:34.724Z,98676.94
2022-11-29T09:38:02.387Z,98689.00
2022-11-29T09:40:40.064Z,98683.84
2022-11-29T09:43:23.132Z,98683.88
2022-11-29T09:45:59.955Z,98680.84
2022-11-29T09:48:33.669Z,98679.22
2022-11-29T09:51:28.024Z,98683.09
2022-11-29T09:54:16.011Z,98683.88
2022-11-29T09:56:48.236Z,98670.19
2022-11-29T09:59:27.825Z,98691.09
2022-11-29T10:02:18.317Z,98687.56
2022-11-29T10:04:57.896Z,98636.16
2022-11-29T10:07:35.988Z,98689.44
2022-11-29T10:10:10.345Z,98688.94
2022-11-29T10:12:47.411Z,98682.94
2022-11-29T10:15:27.350Z,98679.41
2022-11-29T10:18:03.127Z,98677.47
2022-11-29T10:20:40.505Z,98668.69
2022-11-29T10:23:39.990Z,98659.66
2022-11-29T10:26:08.356Z,98657.72
2022-11-29T10:28:38.091Z,98661.88
2022-11-29T10:31:28.765Z,98660.50
2022-11-29T10:33:59.213Z,98640.72
2022-11-29T10:36:36.037Z,98655.56
2022-11-29T10:39:27.202Z,98656.13
2022-11-29T10:41:58.364Z,98649.00
2022-11-29T10:44:26.934Z,98648.72
2022-11-29T10:46:55.493Z,98640.72
2022-11-29T10:49:28.907Z,98657.19
2022-11-29T10:51:56.637Z,98653.09
2022-11-29T10:54:35.850Z,98642.66
2022-11-29T10:57:09.496Z,98632.78
2022-11-29T10:59:37.124Z,98631.94
2022-11-29T11:02:06.656Z,98638.53
2022-11-29T11:04:45.860Z,98637.47
2022-11-29T11:07:27.694Z,98635.78
2022-11-29T11:09:57.761Z,98642.94
2022-11-29T11:12:30.764Z,98633.28
2022-11-29T11:15:27.993Z,98641.28
2022-11-29T11:18:01.313Z,98649.78
2022-11-29T11:20:32.134Z,98651.72
2022-11-29T11:23:08.930Z,98653.88
2022-11-29T11:25:39.594Z,98649.78
2022-11-29T11:28:26.451Z,98642.66
2022-11-29T11:31:04.487Z,98643.50
2022-11-29T11:33:38.312Z,98646.78
2022-11-29T11:36:09.521Z,98645.13
2022-11-29T11:38:40.554Z,98651.69
2022-11-29T11:41:22.720Z,98645.38
2022-11-29T11:43:54.246Z,98641.53
2022-11-29T11:46:22.008Z,98643.44
2022-11-29T11:48:51.873Z,98643.44
2022-11-29T11:51:27.041Z,98633.03
2022-11-29T11:53:58.479Z,98637.13
2022-11-29T11:56:35.830Z,98641.25
2022-11-29T11:59:03.834Z,98648.38
2022-11-29T12:01:38.244Z,98651.69
2022-11-29T12:04:23.414Z,98656.63
2022-11-29T12:07:10.736Z,98658.28
2022-11-29T12:09:53.851Z,98647.03
2022-11-29T12:12:29.039Z,98647.03
2022-11-29T12:15:01.081Z,98647.03
2022-11-29T12:17:42.871Z,98650.84
2022-11-29T12:20:31.551Z,98650.56
2022-11-29T12:23:24.610Z,98652.75
2022-11-29T12:26:28.592Z,98654.09
2022-11-29T12:29:03.967Z,98659.06
2022-11-29T12:31:55.862Z,98663.38
2022-11-29T12:34:41.317Z,98661.25
2022-11-29T12:37:33.482Z,98662.34
2022-11-29T12:40:32.397Z,98654.88
2022-11-29T12:43:00.074Z,98659.00
2022-11-29T12:45:58.602Z,98659.56
2022-11-29T12:48:35.516Z,98657.41
2022-11-29T12:51:15.081Z,98664.81
2022-11-29T12:53:45.804Z,98663.16
2022-11-29T12:56:36.719Z,98676.59
2022-11-29T12:59:33.962Z,98677.16
2022-11-29T13:02:26.241Z,98673.59
2022-11-29T13:05:20.047Z,98672.50
2022-11-29T13:08:12.713Z,98670.88
2022-11-29T13:10:46.325Z,98667.56
2022-11-29T13:13:28.080Z,98669.75
2022-11-29T13:16:31.668Z,98676.34
2022-11-29T13:19:24.003Z,98664.81
2022-11-29T13:21:56.756Z,98668.59
2022-11-29T13:24:37.102Z,98661.72
2022-11-29T13:27:09.134Z,98654.00
2022-11-29T13:29:36.839Z,98655.91
2022-11-29T13:32:14.402Z,98658.16
2022-11-29T13:34:48.801Z,98666.59
2022-11-29T13:37:25.093Z,98642.13
2022-11-29T13:40:03.327Z,98667.13
2022-11-29T13:43:10.139Z,98668.53
2022-11-29T13:45:56.554Z,98660.28
2022-11-29T13:48:30.016Z,98669.34
2022-11-29T13:50:59.013Z,98670.16
2022-11-29T13:53:48.287Z,98682.50
2022-11-29T13:56:29.692Z,98681.66
2022-11-29T13:58:59.008Z,98680.56
2022-11-29T14:01:26.860Z,98660.78
2022-11-29T14:04:06.851Z,98686.59
2022-11-29T14:06:40.040Z,98666.25
2022-11-29T14:09:25.069Z,98674.25
2022-11-29T14:12:07.865Z,98670.13
2022-11-29T14:14:49.618Z,98671.53
2022-11-29T14:17:49.350Z,98670.41
2022-11-29T14:20:41.152Z,98677.25
2022-11-29T14:23:08.839Z,98675.84
2022-11-29T14:25:54.426Z,98672.88
2022-11-29T14:28:22.136Z,98667.94
2022-11-29T14:30:57.110Z,98675.03
2022-11-29T14:33:55.997Z,98670.09
2022-11-29T14:36:42.684Z,98673.09
2022-11-29T14:39:19.280Z,98665.16
2022-11-29T14:42:17.029Z,98669.50
2022-11-29T14:44:49.132Z,98646.13
2022-11-29T14:47:25.682Z,98671.69
2022-11-29T14:49:56.636Z,98678.56
2022-11-29T14:52:57.797Z,98689.53
2022-11-29T14:55:25.414Z,98687.59
2022-11-29T14:58:02.158Z,98691.06
2022-11-29T15:00:36.025Z,98682.31
2022-11-29T15:03:21.663Z,98691.16
2022-11-29T15:05:56.401Z,98693.28
2022-11-29T15:08:51.941Z,98697.09
2022-11-29T15:11:32.714Z,98690.78
2022-11-29T15:14:16.528Z,98694.06
2022-11-29T15:16:59.277Z,98702.19
2022-11-29T15:19:45.507Z,98705.22
2022-11-29T15:22:22.801Z,98708.22
2022-11-29T15:24:57.841Z,98714.31
2022-11-29T15:27:25.780Z,98707.63
2022-11-29T15:29:53.488Z,98712.13
2022-11-29T15:32:25.608Z,98712.06
2022-11-29T15:34:56.238Z,98696.97
2022-11-29T15:37:32.829Z,98705.47
2022-11-29T15:40:05.322Z,98709.28
2022-11-29T15:42:47.201Z,98714.75
2022-11-29T15:45:27.647Z,98713.38
2022-11-29T15:47:56.667Z,98729.22
2022-11-29T15:50:32.029Z,98724.03
2022-11-29T15:53:04.706Z,98726.16
2022-11-29T15:55:33.680Z,98728.97
2022-11-29T15:58:08.451Z,98722.41
2022-11-29T16:00:37.261Z,98730.63
2022-11-29T16:03:08.245Z,98729.53
2022-11-29T16:05:40.264Z,98737.44
2022-11-29T16:08:18.593Z,98741.28
2022-11-29T16:10:50.402Z,98744.84
2022-11-29T16:13:40.298Z,98742.09
2022-11-29T16:16:14.032Z,98725.81
2022-11-29T16:18:44.150Z,98743.41
2022-11-29T16:21:32.755Z,98754.38
2022-11-29T16:24:12.862Z,98754.19
2022-11-29T16:26:45.266Z,98757.38
2022-11-29T16:29:35.669Z,98737.84
2022-11-29T16:32:42.063Z,98752.13
2022-11-29T16:35:18.360Z,98764.25
2022-11-29T16:37:47.593Z,98757.09
2022-11-29T16:40:28.899Z,98767.31
2022-11-29T16:43:05.674Z,98770.88
2022-11-29T16:45:42.099Z,98764.44
2022-11-29T16:48:31.213Z,98755.91
2022-11-29T16:51:27.899Z,98749.00
2022-11-29T16:53:55.887Z,98756.13
2022-11-29T16:56:30.144Z,98752.88
2022-11-29T16:59:21.110Z,98752.03
2022-11-29T17:01:50.521Z,98764.81
2022-11-29T17:04:24.361Z,98749.25
2022-11-29T17:06:53.094Z,98748.47
2022-11-29T17:09:25.305Z,98738.81
2022-11-29T17:11:53.305Z,98736.66
2022-11-29T17:14:21.118Z,98748.22
2022-11-29T17:16:50.443Z,98756.53
2022-11-29T17:19:23.845Z,98756.19
2022-11-29T17:21:52.756Z,98759.41
2022-11-29T17:24:21.832Z,98753.38
2022-11-29T17:26:50.345Z,98767.44
2022-11-29T17:29:19.507Z,98755.56
2022-11-29T17:31:50.409Z,98758.84
2022-11-29T17:34:18.842Z,98766.91
2022-11-29T17:36:46.752Z,98772.91
2022-11-29T17:39:15.837Z,98771.84
2022-11-29T17:41:43.583Z,98780.03
2022-11-29T17:44:11.299Z,98780.75
2022-11-29T17:46:39.489Z,98784.13
2022-11-29T17:49:09.566Z,98781.13
2022-11-29T17:51:55.481Z,98784.66
2022-11-29T17:54:23.858Z,98782.75
2022-11-29T17:56:52.135Z,98790.34
2022-11-29T17:59:20.530Z,98793.63
2022-11-29T18:01:48.406Z,98803.22
2022-11-29T18:04:16.416Z,98796.63
2022-11-29T18:06:45.805Z,98791.69
2022-11-29T18:09:13.907Z,98794.91
2022-11-29T18:11:48.212Z,98800.47
2022-11-29T18:14:23.735Z,98803.69
2022-11-29T18:16:52.333Z,98786.34
2022-11-29T18:19:22.802Z,98798.75
2022-11-29T18:21:51.458Z,98797.00
2022-11-29T18:24:19.711Z,98784.94
2022-11-29T18:26:47.789Z,98794.97
2022-11-29T18:29:15.888Z,98786.31
2022-11-29T18:31:45.960Z,98797.66
2022-11-29T18:34:15.337Z,98799.25
2022-11-29T18:36:48.639Z,98801.19
2022-11-29T18:39:18.674Z,98808.34
2022-11-29T18:41:50.818Z,98797.19
2022-11-29T18:44:21.575Z,98798.78
2022-11-29T18:46:49.394Z,98802.22
2022-11-29T18:49:18.648Z,98802.16
2022-11-29T18:51:47.537Z,98789.31
2022-11-29T18:54:17.081Z,98786.59
2022-11-29T18:56:46.231Z,98788.84
2022-11-29T18:59:17.892Z,98792.91
2022-11-29T19:01:47.923Z,98791.59
2022-11-29T19:04:18.630Z,98794.63
2022-11-29T19:06:46.692Z,98798.91
2022-11-29T19:09:17.805Z,98798.34
2022-11-29T19:11:45.563Z,98789.53
2022-11-29T19:14:13.991Z,98801.13
2022-11-29T19:16:44.771Z,98798.16
2022-11-29T19:19:13.437Z,98803.59
2022-11-29T19:21:41.828Z,98801.53
2022-11-29T19:24:17.771Z,98804.25
2022-11-29T19:26:48.044Z,98815.53
2022-11-29T19:29:15.995Z,98817.69
2022-11-29T19:31:44.249Z,98813.94
2022-11-29T19:34:12.485Z,98805.13
2022-11-29T19:36:43.445Z,98808.66
2022-11-29T19:39:15.648Z,98810.13
2022-11-29T19:41:47.613Z,98809.78
2022-11-29T19:44:15.340Z,98814.16
2022-11-29T19:46:47.076Z,98809.16
2022-11-29T19:49:15.067Z,98813.25
2022-11-29T19:51:42.951Z,98797.88
2022-11-29T19:54:11.986Z,98810.59
2022-11-29T19:56:40.216Z,98810.81
2022-11-29T19:59:08.937Z,98813.56
2022-11-29T20:01:41.416Z,98814.13
2022-11-29T20:04:10.599Z,98804.22
2022-11-29T20:06:38.626Z,98817.94
2022-11-29T20:09:07.137Z,98812.78
2022-11-29T20:11:35.035Z,98802.31
2022-11-29T20:14:04.983Z,98808.38
2022-11-29T20:16:34.239Z,98796.31
2022-11-29T20:19:02.185Z,98787.78
2022-11-29T20:21:32.488Z,98805.72
2022-11-29T20:24:06.555Z,98805.34
2022-11-29T20:26:38.042Z,98811.13
2022-11-29T20:29:07.176Z,98805.09
2022-11-29T20:31:37.380Z,98814.75
2022-11-29T20:34:06.570Z,98813.31
2022-11-29T20:36:43.426Z,98815.94
2022-11-29T20:39:39.496Z,98813.31
2022-11-29T20:42:32.182Z,98813.56
2022-11-29T20:45:06.717Z,98808.22
2022-11-29T20:47:55.832Z,98809.53
2022-11-29T20:50:28.804Z,98807.78
2022-11-29T20:53:20.670Z,98810.59
2022-11-29T20:55:49.971Z,98805.34
2022-11-29T20:58:19.494Z,98808.59
2022-11-29T21:00:47.380Z,98810.53
2022-11-29T21:03:19.449Z,98807.75
2022-11-29T21:05:48.836Z,98808.31
2022-11-29T21:08:18.603Z,98807.22
2022-11-29T21:10:46.610Z,98810.22
2022-11-29T21:13:15.554Z,98811.34
2022-11-29T21:15:43.902Z,98811.31
2022-11-29T21:18:38.336Z,98815.03
2022-11-29T21:21:30.418Z,98817.28
2022-11-29T21:24:06.729Z,98815.16
2022-11-29T21:26:42.224Z,98815.59
2022-11-29T21:29:22.464Z,98767.16
2022-11-29T21:31:53.086Z,98812.13
2022-11-29T21:34:21.765Z,98814.56
2022-11-29T21:37:00.915Z,98812.66
2022-11-29T21:39:34.055Z,98817.28
2022-11-29T21:42:01.931Z,98819.44
2022-11-29T21:44:29.655Z,98817.78
2022-11-29T21:46:57.370Z,98820.50
2022-11-29T21:49:25.140Z,98815.56
2022-11-29T21:51:52.899Z,98819.38
2022-11-29T21:54:20.598Z,98817.72
2022-11-29T21:56:48.256Z,98819.16
2022-11-29T21:59:15.964Z,98818.78
2022-11-29T22:01:43.849Z,98822.59
2022-11-29T22:04:14.098Z,98819.84
2022-11-29T22:06:41.780Z,98812.91
2022-11-29T22:09:09.525Z,98816.38
2022-11-29T22:11:37.598Z,98807.38
2022-11-29T22:14:17.972Z,98814.47
2022-11-29T22:16:45.632Z,98810.50
2022-11-29T22:19:14.965Z,98812.47
2022-11-29T22:21:44.065Z,98819.19
2022-11-29T22:24:13.293Z,98816.47
2022-11-29T22:26:42.729Z,98814.81
2022-11-29T22:29:13.926Z,98806.81
2022-11-29T22:31:43.290Z,98795.25
2022-11-29T22:34:11.743Z,98814.44
2022-11-29T22:36:40.728Z,98817.22
2022-11-29T22:39:09.686Z,98814.63
2022-11-29T22:41:38.533Z,98817.94
2022-11-29T22:44:06.810Z,98818.72
2022-11-29T22:46:35.462Z,98814.13
2022-11-29T22:49:03.520Z,98814.72
2022-11-29T22:51:36.399Z,98822.91
2022-11-29T22:54:07.002Z,98817.50
2022-11-29T22:56:40.521Z,98822.97
2022-11-29T22:59:09.080Z,98826.66
2022-11-29T23:01:39.312Z,98836.34
2022-11-29T23:04:11.034Z,98824.81
2022-11-29T23:06:42.277Z,98822.16
2022-11-29T23:09:21.115Z,98800.47
2022-11-29T23:11:56.348Z,98815.78
2022-11-29T23:14:24.653Z,98810.94
2022-11-29T23:16:53.116Z,98805.72
2022-11-29T23:19:21.306Z,98808.78
2022-11-29T23:21:49.091Z,98808.81
2022-11-29T23:24:17.300Z,98792.25
2022-11-29T23:26:48.109Z,98808.78
2022-11-29T23:29:18.713Z,98810.94
2022-11-29T23:31:46.636Z,98803.03
2022-11-29T23:34:15.128Z,98791.50
2022-11-29T23:36:44.806Z,98797.00
2022-11-29T23:39:16.110Z,98794.75
2022-11-29T23:41:44.223Z,98797.56
2022-11-29T23:44:12.016Z,98805.91
2022-11-29T23:46:39.733Z,98792.38
2022-11-29T23:49:07.464Z,98796.56
2022-11-29T23:51:35.153Z,98789.53
2022-11-29T23:54:02.870Z,98784.78
2022-11-29T23:56:35.334Z,98791.69
2022-11-29T23:59:03.393Z,98777.75
